Saint Joseph, Tennessee
Current Conditions -  °F | °C
As of 7:53 PM on Monday 24 Nov 2014 (Local Time) from KMSL Reporting Station
Clear Clear  
Wind Chill: 43°   Ceiling: Unl
Heat Index: 47°   Visibility: 10mi
Dew Point: 37°   Wind: 8mph
Humidity: 68%   Direction: 290°WNW
Pressure: 30.02"   Gusts: NA
Location:  35.04°N, 87.51°W
Report Text: KMSL 250153Z AUTO 29007KT 10SM CLR 08/03 A3002 RMK AO2 SLP162 T00830028 $
Loading
Personal Weather Stations






























Interactive Weather Map New forecast layout! Learn more

10-Day Weather Forecast

Advertisements
Track Severe Weather on mobile